Sycamore, Texas
Current Conditions -  °F | °C
As of 4:55 PM on Monday 24 Nov 2014 (Local Time) from KDRI Reporting Station
Clear Clear  
Wind Chill: 57°   Ceiling: Unl
Heat Index: 57°   Visibility: 10mi
Dew Point: 35°   Wind: 5mph
Humidity: 43%   Direction: 340°NNW
Pressure: 30.04"   Gusts: NA
Location:  31.0001°N, 93.6355°W
Report Text: KDRI 242255Z AUTO 34004KT 10SM CLR 14/02 A3004 RMK AO2 T01390015
Loading
Personal Weather Stations






























Interactive Weather Map New forecast layout! Learn more

10-Day Weather Forecast

Advertisements
Track Severe Weather on mobile